Time;durP1;ratioP1;P1;durP2;ratioP2;P2;SDS_P1;SDS_P2;PMS_P1;PMS_P2;Temp;Humidity;BMP_temperature;BMP_pressure;BME280_temperature;BME280_humidity;BME280_pressure;Samples;Min_cycle;Max_cycle;Signal;HPM_P1;HPM_P2
2022/03/05 00:00:28;;;;;;;;;;;;;;;;;;4995293;28;20182;-59
2022/03/05 00:02:53;;;;;;;;;;;;;;;;;;5013855;28;19913;-58
2022/03/05 00:05:18;;;;;;;;;;;;;;;;;;5018368;28;19917;-60
2022/03/05 00:07:43;;;;;;;;;;;;;;;;;;5009874;28;20077;-59
2022/03/05 00:10:09;;;;;;;;;;;;;;;;;;5014613;28;19913;-62
2022/03/05 00:12:34;;;;;;;;;;;;;;;;;;5013836;28;20373;-59
2022/03/05 00:14:59;;;;;;;;;;;;;;;;;;5010603;28;19929;-60
2022/03/05 00:17:24;;;;;;;;;;;;;;;;;;5018401;28;19929;-59
2022/03/05 00:19:50;;;;;;;;;;;;;;;;;;5005627;28;19917;-61
2022/03/05 00:22:15;;;;;;;;;;;;;;;;;;5012784;28;19920;-60
2022/03/05 00:24:41;;;;;;;;;;;;;;;;;;5009433;28;20351;-60
2022/03/05 00:27:07;;;;;;;;;;;;;;;;;;5007975;28;19913;-60
2022/03/05 00:29:32;;;;;;;;;;;;;;;;;;4994581;28;20301;-59
2022/03/05 00:31:57;;;;;;;;;;;;;;;;;;5012344;28;19924;-59
2022/03/05 00:34:24;;;;;;;;;;;;;;;;;;5000752;28;19924;-58
2022/03/05 00:36:50;;;;;;;;;;;;;;;;;;5014812;28;19945;-58
2022/03/05 00:39:15;;;;;;;;;;;;;;;;;;5010825;28;19959;-59
2022/03/05 00:41:41;;;;;;;;;;;;;;;;;;5015079;28;21419;-60
2022/03/05 00:44:06;;;;;;;;;;;;;;;;;;5009456;28;19963;-58
2022/03/05 00:46:31;;;;;;;;;;;;;;;;;;5009483;28;19921;-61
2022/03/05 00:48:56;;;;;;;;;;;;;;;;;;5015513;28;19917;-60
2022/03/05 00:51:21;;;;;;;;;;;;;;;;;;5010046;28;19920;-60
2022/03/05 00:53:47;;;;;;;;;;;;;;;;;;5014600;28;19917;-59
2022/03/05 00:56:12;;;;;;;;;;;;;;;;;;5008722;28;19919;-58
2022/03/05 00:58:37;;;;;;;;;;;;;;;;;;5008040;28;19959;-58
2022/03/05 01:01:03;;;;;;;;;;;;;;;;;;5013530;28;20370;-59
2022/03/05 01:03:28;;;;;;;;;;;;;;;;;;5008419;28;19921;-59
2022/03/05 01:05:54;;;;;;;;;;;;;;;;;;5017664;28;19913;-61
2022/03/05 01:08:19;;;;;;;;;;;;;;;;;;5006639;28;19917;-59
2022/03/05 01:10:44;;;;;;;;;;;;;;;;;;5003756;28;19919;-59
2022/03/05 01:13:10;;;;;;;;;;;;;;;;;;5010810;28;19921;-61
2022/03/05 01:15:35;;;;;;;;;;;;;;;;;;5011476;28;19917;-58
2022/03/05 01:18:00;;;;;;;;;;;;;;;;;;5011833;28;19913;-60
2022/03/05 01:20:25;;;;;;;;;;;;;;;;;;5009470;28;19928;-57
2022/03/05 01:22:51;;;;;;;;;;;;;;;;;;5009166;28;20003;-61
2022/03/05 01:25:16;;;;;;;;;;;;;;;;;;5020092;28;19913;-61
2022/03/05 01:27:41;;;;;;;;;;;;;;;;;;5011603;28;19956;-59
2022/03/05 01:30:06;;;;;;;;;;;;;;;;;;5016983;28;20246;-60
2022/03/05 01:32:31;;;;;;;;;;;;;;;;;;5010346;28;19924;-59
2022/03/05 01:34:57;;;;;;;;;;;;;;;;;;5010439;28;19924;-60
2022/03/05 01:37:22;;;;;;;;;;;;;;;;;;5016518;28;19909;-62
2022/03/05 01:39:47;;;;;;;;;;;;;;;;;;5008214;28;20335;-60
2022/03/05 01:42:12;;;;;;;;;;;;;;;;;;5017557;28;19917;-60
2022/03/05 01:44:38;;;;;;;;;;;;;;;;;;4999829;28;19920;-61
2022/03/05 01:47:04;;;;;;;;;;;;;;;;;;4976983;28;19913;-59
2022/03/05 01:49:29;;;;;;;;;;;;;;;;;;5016404;28;19909;-62
2022/03/05 01:51:55;;;;;;;;;;;;;;;;;;5008682;28;19928;-59
2022/03/05 01:54:20;;;;;;;;;;;;;;;;;;5016145;28;19917;-59
2022/03/05 01:56:45;;;;;;;;;;;;;;;;;;5009841;28;19916;-60
2022/03/05 01:59:11;;;;;;;;;;;;;;;;;;5006700;28;20181;-59
2022/03/05 02:01:36;;;;;;;;;;;;;;;;;;5016685;28;19933;-58
2022/03/05 02:04:01;;;;;;;;;;;;;;;;;;5007502;28;19924;-60
2022/03/05 02:06:26;;;;;;;;;;;;;;;;;;5015909;28;20357;-59
2022/03/05 02:08:52;;;;;;;;;;;;;;;;;;5005749;28;19909;-59
2022/03/05 02:11:17;;;;;;;;;;;;;;;;;;5008753;28;19926;-57
2022/03/05 02:13:42;;;;;;;;;;;;;;;;;;5015065;28;20412;-59
2022/03/05 02:16:07;;;;;;;;;;;;;;;;;;5011103;28;20232;-58
2022/03/05 02:18:33;;;;;;;;;;;;;;;;;;5015293;28;19921;-58
2022/03/05 02:20:58;;;;;;;;;;;;;;;;;;5012732;28;20329;-58
2022/03/05 02:23:23;;;;;;;;;;;;;;;;;;5009520;28;20377;-62
2022/03/05 02:25:48;;;;;;;;;;;;;;;;;;5017133;28;19922;-59
2022/03/05 02:28:15;;;;;;;;;;;;;;;;;;5008540;28;19924;-58
2022/03/05 02:30:40;;;;;;;;;;;;;;;;;;5014599;28;20453;-58
2022/03/05 02:33:06;;;;;;;;;;;;;;;;;;4990008;28;19924;-59
2022/03/05 02:35:32;;;;;;;;;;;;;;;;;;5011117;28;19919;-60
2022/03/05 02:37:57;;;;;;;;;;;;;;;;;;5018014;28;19925;-59
2022/03/05 02:40:22;;;;;;;;;;;;;;;;;;5009524;28;20306;-61
2022/03/05 02:42:48;;;;;;;;;;;;;;;;;;5019688;28;19917;-58
2022/03/05 02:45:13;;;;;;;;;;;;;;;;;;5009132;28;19909;-60
2022/03/05 02:47:38;;;;;;;;;;;;;;;;;;4998025;28;19913;-61
2022/03/05 02:50:03;;;;;;;;;;;;;;;;;;5016948;28;19914;-59
2022/03/05 02:52:28;;;;;;;;;;;;;;;;;;5006008;28;19922;-59
2022/03/05 02:54:53;;;;;;;;;;;;;;;;;;5017103;28;19913;-59
2022/03/05 02:57:19;;;;;;;;;;;;;;;;;;5007261;28;20353;-62
2022/03/05 02:59:44;;;;;;;;;;;;;;;;;;5008276;28;20372;-59
2022/03/05 03:02:09;;;;;;;;;;;;;;;;;;5015287;28;20270;-58
2022/03/05 03:04:34;;;;;;;;;;;;;;;;;;5014999;28;19913;-60
2022/03/05 03:07:00;;;;;;;;;;;;;;;;;;5018456;28;19951;-59
2022/03/05 03:09:25;;;;;;;;;;;;;;;;;;5013688;28;20251;-58
2022/03/05 03:11:50;;;;;;;;;;;;;;;;;;5011674;28;20264;-59
2022/03/05 03:14:15;;;;;;;;;;;;;;;;;;5021291;28;20374;-61
2022/03/05 03:16:40;;;;;;;;;;;;;;;;;;4994675;28;19924;-57
2022/03/05 03:19:06;;;;;;;;;;;;;;;;;;5002545;28;20658;-58
2022/03/05 03:21:31;;;;;;;;;;;;;;;;;;4993511;28;20063;-59
2022/03/05 03:23:56;;;;;;;;;;;;;;;;;;5013340;28;20008;-58
2022/03/05 03:26:21;;;;;;;;;;;;;;;;;;5016352;28;19996;-60
2022/03/05 03:28:47;;;;;;;;;;;;;;;;;;5013148;28;19988;-58
2022/03/05 03:31:12;;;;;;;;;;;;;;;;;;5020928;28;19916;-58
2022/03/05 03:33:38;;;;;;;;;;;;;;;;;;5013172;28;20243;-60
2022/03/05 03:36:03;;;;;;;;;;;;;;;;;;5013245;28;20242;-60
2022/03/05 03:38:28;;;;;;;;;;;;;;;;;;5016507;28;20370;-58
2022/03/05 03:40:53;;;;;;;;;;;;;;;;;;4992932;28;19917;-59
2022/03/05 03:43:18;;;;;;;;;;;;;;;;;;5019456;28;19921;-60
2022/03/05 03:45:44;;;;;;;;;;;;;;;;;;5012753;28;19957;-61
2022/03/05 03:48:09;;;;;;;;;;;;;;;;;;4996727;28;19949;-59
2022/03/05 03:50:34;;;;;;;;;;;;;;;;;;5002940;28;20000;-58
2022/03/05 03:52:59;;;;;;;;;;;;;;;;;;5011981;28;20420;-58
2022/03/05 03:55:25;;;;;;;;;;;;;;;;;;5008237;28;20351;-57
2022/03/05 03:57:50;;;;;;;;;;;;;;;;;;5008826;28;20429;-58
2022/03/05 04:00:15;;;;;;;;;;;;;;;;;;5013623;28;19917;-58
2022/03/05 04:02:40;;;;;;;;;;;;;;;;;;4999820;28;20031;-59
2022/03/05 04:05:06;;;;;;;;;;;;;;;;;;5011689;28;19917;-60
2022/03/05 04:10:15;;;;;;;;;;;;;;;;;;5011938;28;19917;-58
2022/03/05 04:12:40;;;;;;;;;;;;;;;;;;5009696;28;19979;-59
2022/03/05 04:15:06;;;;;;;;;;;;;;;;;;5002204;28;19921;-60
2022/03/05 04:17:32;;;;;;;;;;;;;;;;;;5011834;28;20286;-59
2022/03/05 04:19:58;;;;;;;;;;;;;;;;;;5018058;28;19936;-59
2022/03/05 04:22:23;;;;;;;;;;;;;;;;;;5012473;28;19913;-60
2022/03/05 04:24:49;;;;;;;;;;;;;;;;;;5015126;28;20247;-59
2022/03/05 04:27:14;;;;;;;;;;;;;;;;;;5018585;28;20349;-60
2022/03/05 04:29:39;;;;;;;;;;;;;;;;;;5011332;28;19913;-58
2022/03/05 04:32:05;;;;;;;;;;;;;;;;;;5018284;28;19909;-59
2022/03/05 04:34:30;;;;;;;;;;;;;;;;;;5010897;28;19917;-58
2022/03/05 04:36:55;;;;;;;;;;;;;;;;;;5008922;28;20027;-58
2022/03/05 04:39:20;;;;;;;;;;;;;;;;;;5000662;28;19909;-59
2022/03/05 04:41:46;;;;;;;;;;;;;;;;;;5011771;28;19921;-58
2022/03/05 04:44:11;;;;;;;;;;;;;;;;;;5017994;28;19925;-58
2022/03/05 04:46:36;;;;;;;;;;;;;;;;;;4994102;28;19936;-59
2022/03/05 04:49:01;;;;;;;;;;;;;;;;;;5010575;28;19913;-58
2022/03/05 04:51:26;;;;;;;;;;;;;;;;;;5002463;28;20311;-61
2022/03/05 04:53:52;;;;;;;;;;;;;;;;;;5008878;28;19921;-58
2022/03/05 04:56:17;;;;;;;;;;;;;;;;;;5015600;28;19975;-58
2022/03/05 04:58:42;;;;;;;;;;;;;;;;;;5011263;28;19952;-59
2022/03/05 05:01:07;;;;;;;;;;;;;;;;;;5010936;28;19915;-60
2022/03/05 05:03:33;;;;;;;;;;;;;;;;;;5016387;28;19921;-59
2022/03/05 05:05:58;;;;;;;;;;;;;;;;;;5013925;28;19925;-59
2022/03/05 05:08:23;;;;;;;;;;;;;;;;;;5018665;28;19913;-59
2022/03/05 05:10:48;;;;;;;;;;;;;;;;;;5010126;28;20045;-57
2022/03/05 05:13:13;;;;;;;;;;;;;;;;;;5014778;28;19909;-61
2022/03/05 05:15:39;;;;;;;;;;;;;;;;;;5017898;28;19921;-59
2022/03/05 05:18:04;;;;;;;;;;;;;;;;;;5012522;28;19920;-59
2022/03/05 05:20:30;;;;;;;;;;;;;;;;;;4998794;28;19924;-60
2022/03/05 05:22:55;;;;;;;;;;;;;;;;;;5011431;28;19917;-59
2022/03/05 05:25:20;;;;;;;;;;;;;;;;;;5008706;28;20342;-57
2022/03/05 05:27:45;;;;;;;;;;;;;;;;;;5018520;28;20392;-58
2022/03/05 05:30:10;;;;;;;;;;;;;;;;;;4991360;28;19949;-59
2022/03/05 05:32:36;;;;;;;;;;;;;;;;;;5013162;28;20366;-60
2022/03/05 05:35:01;;;;;;;;;;;;;;;;;;5008594;28;19913;-59
2022/03/05 05:37:26;;;;;;;;;;;;;;;;;;4999117;28;19956;-59
2022/03/05 05:39:52;;;;;;;;;;;;;;;;;;5015612;28;19917;-62
2022/03/05 05:42:17;;;;;;;;;;;;;;;;;;5007895;28;20373;-59
2022/03/05 05:44:42;;;;;;;;;;;;;;;;;;5018142;28;20377;-61
2022/03/05 05:47:07;;;;;;;;;;;;;;;;;;5011951;28;20259;-58
2022/03/05 05:49:33;;;;;;;;;;;;;;;;;;4994462;28;20445;-59
2022/03/05 05:51:58;;;;;;;;;;;;;;;;;;5017175;28;20536;-59
2022/03/05 05:54:23;;;;;;;;;;;;;;;;;;5009763;28;20278;-60
2022/03/05 05:56:48;;;;;;;;;;;;;;;;;;5016633;28;20024;-59
2022/03/05 05:59:14;;;;;;;;;;;;;;;;;;5008004;28;20007;-60
2022/03/05 06:01:39;;;;;;;;;;;;;;;;;;5007412;28;19961;-59
2022/03/05 06:04:04;;;;;;;;;;;;;;;;;;5013172;28;19959;-59
2022/03/05 06:06:29;;;;;;;;;;;;;;;;;;5008784;28;19924;-59
2022/03/05 06:08:55;;;;;;;;;;;;;;;;;;5017045;28;20000;-59
2022/03/05 06:11:20;;;;;;;;;;;;;;;;;;5008939;28;19936;-57
2022/03/05 06:13:45;;;;;;;;;;;;;;;;;;4986361;28;20304;-58
2022/03/05 06:16:12;;;;;;;;;;;;;;;;;;5015374;28;20279;-59
2022/03/05 06:18:37;;;;;;;;;;;;;;;;;;5012719;28;19924;-58
2022/03/05 06:21:03;;;;;;;;;;;;;;;;;;5014985;28;20261;-60
2022/03/05 06:23:30;;;;;;;;;;;;;;;;;;5010987;28;19929;-59
2022/03/05 06:25:55;;;;;;;;;;;;;;;;;;5005817;28;19913;-58
2022/03/05 06:28:20;;;;;;;;;;;;;;;;;;5014895;28;19913;-59
2022/03/05 06:30:46;;;;;;;;;;;;;;;;;;5010026;28;20028;-60
2022/03/05 06:33:11;;;;;;;;;;;;;;;;;;5000652;28;19940;-58
2022/03/05 06:35:36;;;;;;;;;;;;;;;;;;5009212;28;19917;-59
2022/03/05 06:38:01;;;;;;;;;;;;;;;;;;5009781;28;19917;-59
2022/03/05 06:40:27;;;;;;;;;;;;;;;;;;4997731;28;19913;-58
2022/03/05 06:42:52;;;;;;;;;;;;;;;;;;5010439;28;20357;-60
2022/03/05 06:45:17;;;;;;;;;;;;;;;;;;5016339;28;20331;-59
2022/03/05 06:47:42;;;;;;;;;;;;;;;;;;5009140;28;19913;-58
2022/03/05 06:50:07;;;;;;;;;;;;;;;;;;5012400;28;19910;-60
2022/03/05 06:52:33;;;;;;;;;;;;;;;;;;5011763;28;19921;-57
2022/03/05 06:54:58;;;;;;;;;;;;;;;;;;5006127;28;19917;-57
2022/03/05 06:57:23;;;;;;;;;;;;;;;;;;5017857;28;20321;-58
2022/03/05 06:59:48;;;;;;;;;;;;;;;;;;5009490;28;20141;-62
2022/03/05 07:02:14;;;;;;;;;;;;;;;;;;5011329;28;19921;-60
2022/03/05 07:04:39;;;;;;;;;;;;;;;;;;5012494;28;20065;-59
2022/03/05 07:07:04;;;;;;;;;;;;;;;;;;5006195;28;20257;-58
2022/03/05 07:09:30;;;;;;;;;;;;;;;;;;5015420;28;19917;-58
2022/03/05 07:11:55;;;;;;;;;;;;;;;;;;4998191;28;19925;-59
2022/03/05 07:14:20;;;;;;;;;;;;;;;;;;5008625;28;20346;-60
2022/03/05 07:16:45;;;;;;;;;;;;;;;;;;5014212;28;19917;-59
2022/03/05 07:19:11;;;;;;;;;;;;;;;;;;4997993;28;20008;-59
2022/03/05 07:21:36;;;;;;;;;;;;;;;;;;4999697;28;19964;-59
2022/03/05 07:24:02;;;;;;;;;;;;;;;;;;4998475;28;19917;-61
2022/03/05 07:26:27;;;;;;;;;;;;;;;;;;5010056;28;19959;-59
2022/03/05 07:28:53;;;;;;;;;;;;;;;;;;5024052;28;19952;-62
2022/03/05 07:31:18;;;;;;;;;;;;;;;;;;5011074;28;20203;-58
2022/03/05 07:33:43;;;;;;;;;;;;;;;;;;5016960;28;19944;-60
2022/03/05 07:36:08;;;;;;;;;;;;;;;;;;5009427;28;20310;-59
2022/03/05 07:38:33;;;;;;;;;;;;;;;;;;4986490;28;19913;-59
2022/03/05 07:40:59;;;;;;;;;;;;;;;;;;5013871;28;19913;-60
2022/03/05 07:43:24;;;;;;;;;;;;;;;;;;5013077;28;19960;-59
2022/03/05 07:45:49;;;;;;;;;;;;;;;;;;5016877;28;19924;-59
2022/03/05 07:48:14;;;;;;;;;;;;;;;;;;5009024;28;20009;-59
2022/03/05 07:50:40;;;;;;;;;;;;;;;;;;5011636;28;19948;-59
2022/03/05 07:53:05;;;;;;;;;;;;;;;;;;5019328;28;19964;-59
2022/03/05 07:55:30;;;;;;;;;;;;;;;;;;5012144;28;19979;-58
2022/03/05 07:57:55;;;;;;;;;;;;;;;;;;4999946;28;19913;-59
2022/03/05 08:00:21;;;;;;;;;;;;;;;;;;5010664;28;19918;-60
2022/03/05 08:02:46;;;;;;;;;;;;;;;;;;5000032;28;19952;-59
2022/03/05 08:05:11;;;;;;;;;;;;;;;;;;5021475;28;19916;-58
2022/03/05 08:07:36;;;;;;;;;;;;;;;;;;5011019;28;19909;-58
2022/03/05 08:10:02;;;;;;;;;;;;;;;;;;5018025;28;19917;-59
2022/03/05 08:12:27;;;;;;;;;;;;;;;;;;5014813;28;19909;-58
2022/03/05 08:14:52;;;;;;;;;;;;;;;;;;5011224;28;19917;-57
2022/03/05 08:17:17;;;;;;;;;;;;;;;;;;5017326;28;20988;-59
2022/03/05 08:19:42;;;;;;;;;;;;;;;;;;5007107;28;20046;-58
2022/03/05 08:22:08;;;;;;;;;;;;;;;;;;5012855;28;20349;-59
2022/03/05 08:24:33;;;;;;;;;;;;;;;;;;5009023;28;19961;-59
2022/03/05 08:26:58;;;;;;;;;;;;;;;;;;4993272;28;19935;-59
2022/03/05 08:29:24;;;;;;;;;;;;;;;;;;4995713;28;20613;-58
2022/03/05 08:31:49;;;;;;;;;;;;;;;;;;5009533;28;20273;-59
2022/03/05 08:34:14;;;;;;;;;;;;;;;;;;5014950;28;20262;-59
2022/03/05 08:36:39;;;;;;;;;;;;;;;;;;5011318;28;19913;-58
2022/03/05 08:39:04;;;;;;;;;;;;;;;;;;5006881;28;19996;-59
2022/03/05 08:41:30;;;;;;;;;;;;;;;;;;5020718;28;19917;-58
2022/03/05 08:43:55;;;;;;;;;;;;;;;;;;5007461;28;19913;-58
2022/03/05 08:46:20;;;;;;;;;;;;;;;;;;5018844;28;19909;-58
2022/03/05 08:48:45;;;;;;;;;;;;;;;;;;5012948;28;19996;-59
2022/03/05 08:51:10;;;;;;;;;;;;;;;;;;5009870;28;20198;-59
2022/03/05 08:53:36;;;;;;;;;;;;;;;;;;5016703;28;19932;-59
2022/03/05 08:56:01;;;;;;;;;;;;;;;;;;5005498;28;19917;-59
2022/03/05 08:58:26;;;;;;;;;;;;;;;;;;5015589;28;20239;-59
2022/03/05 09:00:51;;;;;;;;;;;;;;;;;;4990458;28;20255;-59
2022/03/05 09:03:17;;;;;;;;;;;;;;;;;;5009080;28;19925;-60
2022/03/05 09:05:42;;;;;;;;;;;;;;;;;;4999513;28;19917;-58
2022/03/05 09:08:07;;;;;;;;;;;;;;;;;;5012260;28;19913;-58
2022/03/05 09:10:32;;;;;;;;;;;;;;;;;;5014746;28;19920;-57
2022/03/05 09:12:58;;;;;;;;;;;;;;;;;;5005868;28;19916;-59
2022/03/05 09:15:23;;;;;;;;;;;;;;;;;;5008170;28;20297;-59
2022/03/05 09:17:48;;;;;;;;;;;;;;;;;;5016304;28;19921;-58
2022/03/05 09:20:14;;;;;;;;;;;;;;;;;;5005954;28;19971;-60
2022/03/05 09:22:39;;;;;;;;;;;;;;;;;;5011689;28;19979;-58
2022/03/05 09:25:04;;;;;;;;;;;;;;;;;;5007992;28;20441;-59
2022/03/05 09:27:29;;;;;;;;;;;;;;;;;;5003529;28;19921;-59
2022/03/05 09:29:55;;;;;;;;;;;;;;;;;;5011247;28;19916;-58
2022/03/05 09:32:20;;;;;;;;;;;;;;;;;;5002384;28;19924;-58
2022/03/05 09:34:46;;;;;;;;;;;;;;;;;;5011213;28;19976;-59
2022/03/05 09:37:11;;;;;;;;;;;;;;;;;;5009909;28;19918;-58
2022/03/05 09:39:37;;;;;;;;;;;;;;;;;;5006856;28;19913;-59
2022/03/05 09:42:04;;;;;;;;;;;;;;;;;;5011805;28;19921;-58
2022/03/05 09:44:29;;;;;;;;;;;;;;;;;;5007025;28;19927;-59
2022/03/05 09:46:54;;;;;;;;;;;;;;;;;;5012810;28;20041;-61
2022/03/05 09:49:20;;;;;;;;;;;;;;;;;;4994628;28;19999;-59
2022/03/05 09:51:45;;;;;;;;;;;;;;;;;;5014804;28;19939;-58
2022/03/05 09:54:10;;;;;;;;;;;;;;;;;;5017720;28;20243;-59
2022/03/05 09:56:36;;;;;;;;;;;;;;;;;;5010673;28;19917;-58
2022/03/05 09:59:01;;;;;;;;;;;;;;;;;;5013092;28;19924;-59
2022/03/05 10:01:26;;;;;;;;;;;;;;;;;;5013417;28;19929;-60
2022/03/05 10:03:52;;;;;;;;;;;;;;;;;;5018560;28;19929;-59
2022/03/05 10:06:17;;;;;;;;;;;;;;;;;;4998226;28;19928;-58
2022/03/05 10:08:42;;;;;;;;;;;;;;;;;;5014538;28;20755;-60
2022/03/05 10:11:09;;;;;;;;;;;;;;;;;;5016588;28;19913;-59
2022/03/05 10:13:35;;;;;;;;;;;;;;;;;;5016126;28;19956;-58
2022/03/05 10:16:00;;;;;;;;;;;;;;;;;;5004378;28;19921;-58
2022/03/05 10:18:26;;;;;;;;;;;;;;;;;;5015443;28;20205;-59
2022/03/05 10:20:52;;;;;;;;;;;;;;;;;;5015138;28;19917;-58
2022/03/05 10:23:17;;;;;;;;;;;;;;;;;;5015054;28;20004;-58
2022/03/05 10:25:42;;;;;;;;;;;;;;;;;;4998392;28;20004;-58
2022/03/05 10:28:07;;;;;;;;;;;;;;;;;;5015759;28;20251;-59
2022/03/05 10:30:33;;;;;;;;;;;;;;;;;;5014950;28;20262;-59
2022/03/05 10:32:58;;;;;;;;;;;;;;;;;;5015708;28;19910;-58
2022/03/05 10:35:24;;;;;;;;;;;;;;;;;;5012695;28;19913;-58
2022/03/05 10:37:49;;;;;;;;;;;;;;;;;;5012724;28;20402;-59
2022/03/05 10:40:14;;;;;;;;;;;;;;;;;;5015487;28;19921;-57
2022/03/05 10:42:40;;;;;;;;;;;;;;;;;;4997680;28;20716;-59
2022/03/05 10:45:05;;;;;;;;;;;;;;;;;;5016683;28;19921;-59
2022/03/05 10:47:31;;;;;;;;;;;;;;;;;;5017582;28;19913;-60
2022/03/05 10:49:56;;;;;;;;;;;;;;;;;;5016333;28;19920;-59
2022/03/05 10:52:21;;;;;;;;;;;;;;;;;;5015612;28;19920;-59
2022/03/05 10:54:48;;;;;;;;;;;;;;;;;;5015979;28;19948;-57
2022/03/05 10:57:13;;;;;;;;;;;;;;;;;;5017456;28;19917;-58
2022/03/05 10:59:41;;;;;;;;;;;;;;;;;;5017362;28;19913;-58
2022/03/05 11:02:07;;;;;;;;;;;;;;;;;;5011553;28;19917;-58
2022/03/05 11:04:32;;;;;;;;;;;;;;;;;;5015805;28;20262;-57
2022/03/05 11:06:57;;;;;;;;;;;;;;;;;;5013210;28;19999;-60
2022/03/05 11:09:23;;;;;;;;;;;;;;;;;;5013615;28;20325;-59
2022/03/05 11:11:48;;;;;;;;;;;;;;;;;;5011171;28;20409;-59
2022/03/05 11:14:13;;;;;;;;;;;;;;;;;;5011602;28;20332;-58
2022/03/05 11:16:38;;;;;;;;;;;;;;;;;;5013379;28;20433;-58
2022/03/05 11:19:04;;;;;;;;;;;;;;;;;;5014533;28;20267;-59
2022/03/05 11:21:29;;;;;;;;;;;;;;;;;;5015401;28;19917;-58
2022/03/05 11:23:54;;;;;;;;;;;;;;;;;;5018932;28;19921;-58
2022/03/05 11:26:20;;;;;;;;;;;;;;;;;;5002362;28;20312;-59
2022/03/05 11:28:45;;;;;;;;;;;;;;;;;;5016377;28;19983;-59
2022/03/05 11:31:10;;;;;;;;;;;;;;;;;;5003670;28;19913;-59
2022/03/05 11:33:36;;;;;;;;;;;;;;;;;;5018480;28;19918;-59
2022/03/05 11:36:01;;;;;;;;;;;;;;;;;;5017949;28;20235;-58
2022/03/05 11:38:26;;;;;;;;;;;;;;;;;;5015798;28;19921;-58
2022/03/05 11:40:51;;;;;;;;;;;;;;;;;;5000881;28;19913;-58
2022/03/05 11:43:16;;;;;;;;;;;;;;;;;;5020508;28;19922;-60
2022/03/05 11:45:42;;;;;;;;;;;;;;;;;;5021250;28;19992;-58
2022/03/05 11:48:07;;;;;;;;;;;;;;;;;;5015337;28;19913;-58
2022/03/05 11:50:32;;;;;;;;;;;;;;;;;;5017777;28;19909;-58
2022/03/05 11:52:57;;;;;;;;;;;;;;;;;;5017095;28;19921;-60
2022/03/05 11:55:26;;;;;;;;;;;;;;;;;;5019766;28;20323;-58
2022/03/05 11:57:51;;;;;;;;;;;;;;;;;;5010973;28;20282;-60
2022/03/05 12:00:17;;;;;;;;;;;;;;;;;;5004723;28;19909;-57
2022/03/05 12:02:42;;;;;;;;;;;;;;;;;;5026866;28;20300;-57
2022/03/05 12:05:07;;;;;;;;;;;;;;;;;;5036366;28;19921;-57
2022/03/05 12:07:33;;;;;;;;;;;;;;;;;;5036523;28;19909;-57
2022/03/05 12:10:02;;;;;;;;;;;;;;;;;;5035927;28;19916;-57
2022/03/05 12:12:28;;;;;;;;;;;;;;;;;;5035294;28;19917;-57
2022/03/05 12:14:53;;;;;;;;;;;;;;;;;;5036743;28;19913;-57
2022/03/05 12:17:18;;;;;;;;;;;;;;;;;;5036153;28;20034;-57
2022/03/05 12:19:43;;;;;;;;;;;;;;;;;;5018628;28;20350;-57
2022/03/05 12:22:09;;;;;;;;;;;;;;;;;;5036318;28;19983;-56
2022/03/05 12:24:35;;;;;;;;;;;;;;;;;;5036083;28;19999;-56
2022/03/05 12:27:01;;;;;;;;;;;;;;;;;;5036567;28;19948;-57
2022/03/05 12:29:26;;;;;;;;;;;;;;;;;;5035914;28;19909;-57
2022/03/05 12:31:51;;;;;;;;;;;;;;;;;;5018400;28;19959;-58
2022/03/05 12:34:17;;;;;;;;;;;;;;;;;;5017696;28;19905;-56
2022/03/05 12:36:42;;;;;;;;;;;;;;;;;;5036369;28;20026;-58
2022/03/05 12:39:07;;;;;;;;;;;;;;;;;;5036095;28;20000;-58
2022/03/05 12:41:33;;;;;;;;;;;;;;;;;;5036017;28;19905;-57
2022/03/05 12:43:58;;;;;;;;;;;;;;;;;;5034747;28;19975;-57
2022/03/05 12:46:24;;;;;;;;;;;;;;;;;;5035647;28;19971;-58
2022/03/05 12:48:49;;;;;;;;;;;;;;;;;;5036137;28;19952;-57
2022/03/05 12:51:15;;;;;;;;;;;;;;;;;;5017765;28;19909;-57
2022/03/05 12:53:42;;;;;;;;;;;;;;;;;;5035566;28;19909;-57
2022/03/05 12:56:07;;;;;;;;;;;;;;;;;;5035751;28;19916;-58
2022/03/05 12:58:32;;;;;;;;;;;;;;;;;;5036031;28;19909;-58
2022/03/05 13:00:57;;;;;;;;;;;;;;;;;;5034688;28;19909;-58
2022/03/05 13:03:22;;;;;;;;;;;;;;;;;;5035322;28;20242;-58
2022/03/05 13:05:48;;;;;;;;;;;;;;;;;;5035609;28;19992;-58
2022/03/05 13:08:13;;;;;;;;;;;;;;;;;;5034344;28;20297;-58
2022/03/05 13:10:38;;;;;;;;;;;;;;;;;;5035176;28;19905;-58
2022/03/05 13:13:04;;;;;;;;;;;;;;;;;;5035130;28;19915;-58
2022/03/05 13:15:29;;;;;;;;;;;;;;;;;;5035532;28;19913;-57
2022/03/05 13:17:58;;;;;;;;;;;;;;;;;;5035635;28;19908;-58
2022/03/05 13:20:24;;;;;;;;;;;;;;;;;;5035570;28;19909;-56
2022/03/05 13:22:49;;;;;;;;;;;;;;;;;;5035163;28;19913;-58
2022/03/05 13:25:15;;;;;;;;;;;;;;;;;;5035185;28;19909;-57
2022/03/05 13:27:41;;;;;;;;;;;;;;;;;;5035118;28;19921;-57
2022/03/05 13:30:06;;;;;;;;;;;;;;;;;;5035095;28;19956;-58
2022/03/05 13:32:31;;;;;;;;;;;;;;;;;;5035034;28;19920;-58
2022/03/05 13:34:57;;;;;;;;;;;;;;;;;;5033880;28;19913;-58
2022/03/05 13:37:22;;;;;;;;;;;;;;;;;;5035544;28;19916;-58
2022/03/05 13:39:47;;;;;;;;;;;;;;;;;;5034925;28;19916;-59
2022/03/05 13:42:12;;;;;;;;;;;;;;;;;;5035138;28;19905;-58
2022/03/05 13:44:38;;;;;;;;;;;;;;;;;;5034008;28;20293;-59
2022/03/05 13:47:03;;;;;;;;;;;;;;;;;;5034411;28;19916;-58
2022/03/05 13:49:28;;;;;;;;;;;;;;;;;;5034726;28;19916;-58
2022/03/05 13:51:54;;;;;;;;;;;;;;;;;;5034698;28;20249;-58
2022/03/05 13:54:19;;;;;;;;;;;;;;;;;;5033253;28;19924;-58
2022/03/05 13:56:44;;;;;;;;;;;;;;;;;;5033232;28;19941;-58
2022/03/05 13:59:09;;;;;;;;;;;;;;;;;;5016875;28;20000;-57
2022/03/05 14:01:35;;;;;;;;;;;;;;;;;;5033442;28;19964;-57
2022/03/05 14:04:00;;;;;;;;;;;;;;;;;;5033322;28;19944;-58
2022/03/05 14:06:25;;;;;;;;;;;;;;;;;;5034265;28;19916;-57
2022/03/05 14:08:50;;;;;;;;;;;;;;;;;;5016837;28;19916;-57
2022/03/05 14:11:16;;;;;;;;;;;;;;;;;;5035071;28;19909;-57
2022/03/05 14:13:41;;;;;;;;;;;;;;;;;;5034621;28;20023;-57
2022/03/05 14:16:06;;;;;;;;;;;;;;;;;;5034968;28;19917;-58
2022/03/05 14:18:31;;;;;;;;;;;;;;;;;;5034356;28;19952;-58
2022/03/05 14:20:57;;;;;;;;;;;;;;;;;;5034304;28;19931;-58
2022/03/05 14:23:22;;;;;;;;;;;;;;;;;;5034324;28;19909;-58
2022/03/05 14:25:48;;;;;;;;;;;;;;;;;;5032756;28;19909;-58
2022/03/05 14:28:14;;;;;;;;;;;;;;;;;;5033334;28;19963;-58
2022/03/05 14:30:39;;;;;;;;;;;;;;;;;;5026593;28;19909;-59
2022/03/05 14:33:04;;;;;;;;;;;;;;;;;;4993210;28;20301;-58
2022/03/05 14:35:29;;;;;;;;;;;;;;;;;;5007912;28;20270;-57
2022/03/05 14:37:55;;;;;;;;;;;;;;;;;;5014656;28;20004;-57
2022/03/05 14:40:20;;;;;;;;;;;;;;;;;;5014666;28;19914;-57
2022/03/05 14:42:46;;;;;;;;;;;;;;;;;;5014218;28;19909;-58
2022/03/05 14:45:11;;;;;;;;;;;;;;;;;;5023435;28;19938;-58
2022/03/05 14:47:36;;;;;;;;;;;;;;;;;;5034010;28;20004;-58
2022/03/05 14:50:01;;;;;;;;;;;;;;;;;;5033675;28;19955;-57
2022/03/05 14:52:26;;;;;;;;;;;;;;;;;;5033889;28;20004;-57
2022/03/05 14:54:52;;;;;;;;;;;;;;;;;;5033963;28;19909;-57
2022/03/05 14:57:20;;;;;;;;;;;;;;;;;;5002303;28;19968;-57
2022/03/05 14:59:45;;;;;;;;;;;;;;;;;;5037878;28;19905;-57
2022/03/05 15:02:10;;;;;;;;;;;;;;;;;;5029839;28;19920;-59
2022/03/05 15:04:35;;;;;;;;;;;;;;;;;;5018106;28;19905;-58
2022/03/05 15:07:01;;;;;;;;;;;;;;;;;;5017806;28;19913;-58
2022/03/05 15:09:26;;;;;;;;;;;;;;;;;;5018024;28;19949;-58
2022/03/05 15:11:53;;;;;;;;;;;;;;;;;;5017643;28;20000;-58
2022/03/05 15:14:20;;;;;;;;;;;;;;;;;;5017511;28;19914;-58
2022/03/05 15:16:47;;;;;;;;;;;;;;;;;;5017937;28;20378;-58
2022/03/05 15:19:12;;;;;;;;;;;;;;;;;;5018068;28;20290;-58
2022/03/05 15:21:37;;;;;;;;;;;;;;;;;;5017500;28;20370;-58
2022/03/05 15:24:02;;;;;;;;;;;;;;;;;;5000118;28;19910;-58
2022/03/05 15:26:27;;;;;;;;;;;;;;;;;;5029753;28;20365;-58
2022/03/05 15:28:53;;;;;;;;;;;;;;;;;;5037408;28;20337;-58
2022/03/05 15:31:18;;;;;;;;;;;;;;;;;;5037697;28;19955;-59
2022/03/05 15:33:43;;;;;;;;;;;;;;;;;;5019802;28;20319;-58
2022/03/05 15:36:09;;;;;;;;;;;;;;;;;;5037286;28;20409;-58
2022/03/05 15:38:34;;;;;;;;;;;;;;;;;;5036057;28;19913;-58
2022/03/05 15:40:59;;;;;;;;;;;;;;;;;;5034812;28;20007;-59
2022/03/05 15:43:24;;;;;;;;;;;;;;;;;;5037187;28;20234;-59
2022/03/05 15:45:50;;;;;;;;;;;;;;;;;;5036896;28;19964;-58
2022/03/05 15:48:15;;;;;;;;;;;;;;;;;;5037364;28;19905;-58
2022/03/05 15:50:40;;;;;;;;;;;;;;;;;;5036950;28;19915;-58
2022/03/05 15:53:05;;;;;;;;;;;;;;;;;;5037037;28;19909;-58
2022/03/05 15:55:30;;;;;;;;;;;;;;;;;;5019192;28;19975;-59
2022/03/05 15:57:55;;;;;;;;;;;;;;;;;;5036823;28;19913;-58
2022/03/05 16:00:21;;;;;;;;;;;;;;;;;;5036759;28;19955;-59
2022/03/05 16:02:48;;;;;;;;;;;;;;;;;;5037072;28;20257;-59
2022/03/05 16:05:13;;;;;;;;;;;;;;;;;;5034672;28;20003;-59
2022/03/05 16:07:39;;;;;;;;;;;;;;;;;;5035882;28;19952;-58
2022/03/05 16:10:04;;;;;;;;;;;;;;;;;;5036486;28;19909;-58
2022/03/05 16:12:29;;;;;;;;;;;;;;;;;;5036687;28;19921;-58
2022/03/05 16:14:54;;;;;;;;;;;;;;;;;;5003738;28;19918;-58
2022/03/05 16:17:20;;;;;;;;;;;;;;;;;;5011472;28;19921;-58
2022/03/05 16:19:45;;;;;;;;;;;;;;;;;;4997398;28;19916;-58
2022/03/05 16:22:10;;;;;;;;;;;;;;;;;;4997420;28;19910;-59
2022/03/05 16:24:35;;;;;;;;;;;;;;;;;;4997095;28;20004;-58
2022/03/05 16:27:01;;;;;;;;;;;;;;;;;;4979647;28;20016;-58
2022/03/05 16:29:27;;;;;;;;;;;;;;;;;;4979984;28;19910;-58
2022/03/05 16:31:52;;;;;;;;;;;;;;;;;;4997223;28;19921;-58
2022/03/05 16:34:19;;;;;;;;;;;;;;;;;;4997167;28;19913;-58